KJYG

St James Municipal Airport

St James, Minnesota, USA
METAR KJYG 141755Z AUTO 22005KT 10SM CLR 04/M03 A3019 RMK AO2
Observed Flight Rules
Dec-14 @ 17:55 UTC (10 minutes ago) Visual Flight Rules
Wind Visibility Clouds
220° at 5 knots 10 miles
  • Clear skies
Temperatures Readings
Current 4°C / 39°F
Dewpoint -3°C / 27°F
Humidity 61%
Altimeter 30.19" Hg
Pressure 1022 hPa
Elevation 325
METAR KJYG 141755Z AUTO 22005KT 10SM CLR 04/M03 A3019 RMK AO2
Observed Flight Rules
Dec-14 @ 17:55 UTC
(10 minutes ago)
VFR
Wind Visibility
220° at 5 knots 10 miles
Clouds
  • Clear skies
Temperature Dewpoint
4°C / 39°F -3°C / 27°F
Humidity Altimeter Pressure
61% 30.19" Hg 1022 hPa